Terminal Aerodrome Forecast
Issued by NWS Portland, OR

Home | Current Version | Previous Version | Text Only | Print | Product List | Glossary On
Versions: 1 2 3 4 5 6 7 8 9 10 11 12 13 14 15 16 17 18 19 20 21 22 23 24 25
000
FTUS46 KPQR 230845 AAB
TAFAST
TAF AMD
KAST 230845Z 2309/2406 16003KT P6SM BKN015 OVC035
     FM231600 19005KT P6SM -RA BKN015 OVC025
     FM232000 22006KT P6SM SCT015 BKN035 OVC060
     FM240000 29005KT P6SM SCT025 BKN070=

USA.gov is the U.S. government's official web portal to all federal, state and local government web resources and services.